createdAt,value
2023-04-19T00:01:28.255Z,12.49
2023-04-19T00:06:31.811Z,12.75
2023-04-19T00:11:34.479Z,12.87
2023-04-19T00:16:38.395Z,12.88
2023-04-19T00:21:40.961Z,12.83
2023-04-19T00:26:44.524Z,12.85
2023-04-19T00:31:48.451Z,12.88
2023-04-19T00:36:50.989Z,12.89
2023-04-19T00:41:54.248Z,12.88
2023-04-19T00:46:58.807Z,12.92
2023-04-19T00:52:01.352Z,12.95
2023-04-19T00:57:03.945Z,12.91
2023-04-19T01:02:08.318Z,12.82
2023-04-19T01:07:11.726Z,12.92
2023-04-19T01:12:14.288Z,12.88
2023-04-19T01:17:20.283Z,12.87
2023-04-19T01:22:24.190Z,12.79
2023-04-19T01:27:27.800Z,12.81
2023-04-19T01:32:30.427Z,12.85
2023-04-19T01:37:37.247Z,12.88
2023-04-19T01:42:40.502Z,12.87
2023-04-19T01:47:43.224Z,12.91
2023-04-19T01:52:47.142Z,12.66
2023-04-19T01:57:49.720Z,12.85
2023-04-19T02:02:52.422Z,12.86
2023-04-19T02:07:56.403Z,12.82
2023-04-19T02:12:58.978Z,12.85
2023-04-19T02:18:01.544Z,12.79
2023-04-19T02:23:05.531Z,12.70
2023-04-19T02:28:09.677Z,12.72
2023-04-19T02:33:12.454Z,12.66
2023-04-19T02:38:16.446Z,12.64
2023-04-19T02:43:19.000Z,12.58
2023-04-19T02:48:21.581Z,12.51
2023-04-19T02:53:25.577Z,12.49
2023-04-19T02:58:28.407Z,12.39
2023-04-19T03:03:42.108Z,12.39
2023-04-19T03:08:46.321Z,12.37
2023-04-19T03:13:49.183Z,12.31
2023-04-19T03:18:51.881Z,12.15
2023-04-19T03:24:00.539Z,12.25
2023-04-19T03:29:03.234Z,12.28
2023-04-19T03:34:13.813Z,12.22
2023-04-19T03:39:21.729Z,12.42
2023-04-19T03:44:27.608Z,12.40
2023-04-19T03:49:30.528Z,12.44
2023-04-19T03:54:41.312Z,12.44
2023-04-19T03:59:53.603Z,12.45
2023-04-19T04:04:56.584Z,12.44
2023-04-19T04:10:01.494Z,12.39
2023-04-19T04:15:07.270Z,12.38
2023-04-19T04:20:13.926Z,12.36
2023-04-19T04:25:19.557Z,12.28
2023-04-19T04:30:26.561Z,12.15
2023-04-19T04:35:31.848Z,12.11
2023-04-19T04:40:44.327Z,11.98
2023-04-19T04:45:46.934Z,11.82
2023-04-19T04:50:50.439Z,11.81
2023-04-19T04:55:55.456Z,11.83
2023-04-19T05:00:58.549Z,11.84
2023-04-19T05:06:02.842Z,11.81
2023-04-19T05:11:08.310Z,11.77
2023-04-19T05:16:12.787Z,11.74
2023-04-19T05:21:18.504Z,11.78
2023-04-19T05:26:23.001Z,11.84
2023-04-19T05:31:26.927Z,11.84
2023-04-19T05:36:47.908Z,11.91
2023-04-19T05:41:53.012Z,11.94
2023-04-19T05:46:55.695Z,11.91
2023-04-19T05:52:18.212Z,11.92
2023-04-19T05:57:26.824Z,12.07
2023-04-19T06:02:29.707Z,12.10
2023-04-19T06:07:34.472Z,12.10
2023-04-19T06:12:44.161Z,12.10
2023-04-19T06:17:46.838Z,12.10
2023-04-19T06:22:49.844Z,12.12
2023-04-19T06:27:53.864Z,12.10
2023-04-19T06:32:56.489Z,12.09
2023-04-19T06:38:02.300Z,12.13
2023-04-19T06:43:06.976Z,12.07
2023-04-19T06:48:09.908Z,12.01
2023-04-19T06:53:12.508Z,12.17
2023-04-19T06:58:16.394Z,12.26
2023-04-19T07:03:19.284Z,12.24
2023-04-19T07:08:21.916Z,12.34
2023-04-19T07:13:25.892Z,12.38
2023-04-19T07:18:28.654Z,12.29
2023-04-19T07:23:31.639Z,12.50
2023-04-19T07:28:35.979Z,12.58
2023-04-19T07:33:38.599Z,12.75
2023-04-19T07:38:41.599Z,12.75
2023-04-19T07:43:45.635Z,12.78
2023-04-19T07:48:48.236Z,12.82
2023-04-19T07:53:51.011Z,12.90
2023-04-19T07:59:06.811Z,12.92
2023-04-19T08:04:11.149Z,12.92
2023-04-19T08:09:13.956Z,12.99
2023-04-19T08:14:32.355Z,12.97
2023-04-19T08:19:41.602Z,13.20
2023-04-19T08:24:44.197Z,13.26
2023-04-19T08:29:48.228Z,13.38
2023-04-19T08:34:50.786Z,13.14
2023-04-19T08:39:54.038Z,13.26
2023-04-19T08:45:23.481Z,13.34
2023-04-19T08:50:32.136Z,13.18
2023-04-19T08:55:40.878Z,13.54
2023-04-19T09:00:49.330Z,13.56
2023-04-19T09:05:52.248Z,13.55
2023-04-19T09:10:56.559Z,13.55
2023-04-19T09:16:01.101Z,13.64
2023-04-19T09:21:03.769Z,13.68
2023-04-19T09:26:22.713Z,13.60
2023-04-19T09:31:43.505Z,13.67
2023-04-19T09:37:00.504Z,13.79
2023-04-19T09:42:11.371Z,13.83
2023-04-19T09:47:35.000Z,13.93
2023-04-19T09:52:38.602Z,14.02
2023-04-19T09:57:41.657Z,14.10
2023-04-19T10:02:48.749Z,14.13
2023-04-19T10:07:59.286Z,14.20
2023-04-19T10:13:18.898Z,14.13
2023-04-19T10:18:24.763Z,14.04
2023-04-19T10:23:27.646Z,14.01
2023-04-19T10:28:30.913Z,14.06
2023-04-19T10:33:38.548Z,14.07
2023-04-19T10:38:43.337Z,14.18
2023-04-19T10:43:47.739Z,14.09
2023-04-19T10:48:58.093Z,14.10
2023-04-19T10:54:01.978Z,14.12
2023-04-19T10:59:23.168Z,14.37
2023-04-19T11:05:01.005Z,14.32
2023-04-19T11:10:03.623Z,14.33
2023-04-19T11:15:09.435Z,14.47
2023-04-19T11:20:14.485Z,14.75
2023-04-19T11:25:19.037Z,15.02
2023-04-19T11:30:23.288Z,15.29
2023-04-19T11:35:30.199Z,15.40
2023-04-19T11:40:33.103Z,15.45
2023-04-19T11:45:39.558Z,15.71
2023-04-19T11:50:45.913Z,15.94
2023-04-19T11:55:51.048Z,16.08
2023-04-19T12:00:53.686Z,16.42
2023-04-19T12:05:59.026Z,16.57
2023-04-19T12:11:03.249Z,16.68
2023-04-19T12:16:06.237Z,16.90
2023-04-19T12:21:10.527Z,16.93
2023-04-19T12:26:13.203Z,17.06
2023-04-19T12:31:16.408Z,17.16
2023-04-19T12:36:21.008Z,17.24
2023-04-19T12:41:23.563Z,17.42
2023-04-19T12:46:26.244Z,17.62
2023-04-19T12:51:34.021Z,17.84
2023-04-19T12:56:37.384Z,18.28
2023-04-19T13:01:39.932Z,18.55
2023-04-19T13:06:43.906Z,18.90
2023-04-19T13:11:46.471Z,19.03
2023-04-19T13:16:49.195Z,19.49
2023-04-19T13:21:53.256Z,19.71
2023-04-19T13:26:56.536Z,20.00
2023-04-19T13:31:59.437Z,20.13
2023-04-19T13:37:03.298Z,20.47
2023-04-19T13:42:06.113Z,20.27
2023-04-19T13:47:08.715Z,20.33
2023-04-19T13:52:13.096Z,20.67
2023-04-19T13:57:16.225Z,20.91
2023-04-19T14:02:18.958Z,20.67
2023-04-19T14:07:22.896Z,20.56
2023-04-19T14:12:27.137Z,20.48
2023-04-19T14:17:30.004Z,20.64
2023-04-19T14:22:35.051Z,20.56
2023-04-19T14:27:38.316Z,20.67
2023-04-19T14:32:40.988Z,20.67
2023-04-19T14:37:44.953Z,20.56
2023-04-19T14:42:47.535Z,20.27
2023-04-19T14:47:51.351Z,20.49
2023-04-19T14:52:55.706Z,20.31
2023-04-19T14:57:58.319Z,19.96
2023-04-19T15:03:02.402Z,19.62
2023-04-19T15:08:09.145Z,19.31
2023-04-19T15:13:17.617Z,19.05
2023-04-19T15:18:20.239Z,18.69
2023-04-19T15:23:25.880Z,18.30
2023-04-19T15:28:28.419Z,18.08
2023-04-19T15:33:31.651Z,17.92
2023-04-19T15:38:36.023Z,17.61
2023-04-19T15:43:38.994Z,17.38
2023-04-19T15:48:46.585Z,17.15
2023-04-19T15:53:50.565Z,16.98
2023-04-19T15:58:53.122Z,16.89
2023-04-19T16:03:55.851Z,16.85
2023-04-19T16:08:59.928Z,16.82
2023-04-19T16:14:02.490Z,16.64
2023-04-19T16:19:05.060Z,16.38
2023-04-19T16:24:09.137Z,16.40
2023-04-19T16:29:12.061Z,16.37
2023-04-19T16:34:15.024Z,16.42
2023-04-19T16:39:19.241Z,16.32
2023-04-19T16:44:22.197Z,16.24
2023-04-19T16:49:25.415Z,15.90
2023-04-19T16:54:29.315Z,15.76
2023-04-19T16:59:32.289Z,15.69
2023-04-19T17:04:35.437Z,15.65
2023-04-19T17:09:39.625Z,15.55
2023-04-19T17:14:42.222Z,15.59
2023-04-19T17:19:44.953Z,15.43
2023-04-19T17:24:48.882Z,15.23
2023-04-19T17:29:51.582Z,15.07
2023-04-19T17:34:54.136Z,15.07
2023-04-19T17:39:58.119Z,15.01
2023-04-19T17:45:00.721Z,14.97
2023-04-19T17:50:07.915Z,14.91
2023-04-19T17:55:11.992Z,14.83
2023-04-19T18:00:16.308Z,14.55
2023-04-19T18:05:19.265Z,14.08
2023-04-19T18:10:23.194Z,14.57
2023-04-19T18:15:25.822Z,14.37
2023-04-19T18:20:28.621Z,14.38
2023-04-19T18:25:35.185Z,14.25
2023-04-19T18:30:37.760Z,14.22
2023-04-19T18:35:41.220Z,13.63
2023-04-19T18:40:45.618Z,14.05
2023-04-19T18:45:54.162Z,13.92
2023-04-19T18:50:57.746Z,13.77
2023-04-19T18:56:02.285Z,13.67
2023-04-19T19:01:05.113Z,13.56
2023-04-19T19:06:08.040Z,13.49
2023-04-19T19:11:37.259Z,13.45
2023-04-19T19:21:40.530Z,13.02
2023-04-19T19:26:44.481Z,13.17
2023-04-19T19:31:47.100Z,13.07
2023-04-19T19:36:50.690Z,13.00
2023-04-19T19:47:00.095Z,12.80
2023-04-19T19:52:03.823Z,12.77
2023-04-19T19:58:07.171Z,12.62
2023-04-19T20:02:33.863Z,12.57
2023-04-19T20:08:00.604Z,12.35
2023-04-19T20:13:06.074Z,12.28
2023-04-19T20:18:09.202Z,12.23
2023-04-19T20:23:12.209Z,12.13
2023-04-19T20:28:16.153Z,12.02
2023-04-19T20:33:18.784Z,11.97
2023-04-19T20:38:23.184Z,11.95
2023-04-19T20:43:27.062Z,11.89
2023-04-19T20:48:31.087Z,11.79
2023-04-19T20:53:33.665Z,11.84
2023-04-19T20:58:38.315Z,11.88
2023-04-19T21:03:40.987Z,11.91
2023-04-19T21:08:43.610Z,11.87
2023-04-19T21:13:47.613Z,11.84
2023-04-19T21:18:50.146Z,11.69
2023-04-19T21:23:52.670Z,11.78
2023-04-19T21:28:56.538Z,11.72
2023-04-19T21:33:59.055Z,11.21
2023-04-19T21:39:07.705Z,11.71
2023-04-19T21:44:12.696Z,11.57
2023-04-19T21:49:15.637Z,11.56
2023-04-19T21:54:30.711Z,11.48
2023-04-19T21:59:38.139Z,11.50
2023-04-19T22:04:41.418Z,11.47
2023-04-19T22:09:44.371Z,11.33
2023-04-19T22:14:48.264Z,11.36
2023-04-19T22:19:51.391Z,11.30
2023-04-19T22:24:57.838Z,11.29
2023-04-19T22:30:02.301Z,11.17
2023-04-19T22:35:06.619Z,11.14
2023-04-19T22:40:10.358Z,11.00
2023-04-19T22:45:14.246Z,10.97
2023-04-19T22:50:16.812Z,10.95
2023-04-19T22:55:19.409Z,10.99
2023-04-19T23:00:23.998Z,10.77
2023-04-19T23:05:27.052Z,10.76
2023-04-19T23:10:29.577Z,10.85
2023-04-19T23:15:34.342Z,10.67
2023-04-19T23:20:36.966Z,10.77
2023-04-19T23:25:39.493Z,10.67
2023-04-19T23:30:43.401Z,10.62
2023-04-19T23:35:45.971Z,10.64
2023-04-19T23:40:48.511Z,10.57
2023-04-19T23:45:52.383Z,10.56
2023-04-19T23:50:55.562Z,10.46
2023-04-19T23:55:58.105Z,10.48
